Les Masies de Roda





Hora UTC 21:00
Temperatura 21.1 ºC
Sòl 15 cm 18.5 ºC
Subsòl 10 cm 23.9 ºC
Humitat 67.5 %
Pressió 1019.5 hPa
Pluja 0.1 mm
Velocitat vent 2.9 km/h
Direcció vent S
Radiació solar 0.1 W/m²

Dades diàries 2022-08-19



Hora UTC (hivern +1h; estiu +2h)
Temperatura (ºC) Humitat (%) Pressió (hPa) Velocitat vent (km/h) Precipitació (mm) Radiació solar (W/m²)
Hora UTC Aire Sòl 15 cm Subsòl 10 cm Humitat Pressió Vel. Dir. Vel. Max Dir. Intent. màx 5 min. Rad. Sol.
00:05 13.8 13.6 18.1 96.9 1017.2 1.2 ENE 1.2 ENE 0.0 0.1
00:10 13.8 13.8 18.1 96.9 1017.2 2.3 E 4.2 ESE 0.0 0.1
00:15 13.9 13.8 18.1 96.9 1017.1 2.4 ESE 5.0 ESE 0.0 0.1
00:20 13.9 13.8 18.0 96.9 1017.0 1.7 ESE 4.6 ESE 0.0 0.1
00:25 14.0 13.8 18.0 96.9 1017.0 3.2 E 5.3 E 0.0 0.1
00:30 13.9 13.8 18.0 96.8 1017.0 3.3 ESE 5.3 ESE 0.0 0.1
00:35 13.9 13.8 18.0 96.8 1017.2 0.7 ESE 2.1 SE 0.0 0.1
00:40 13.9 13.8 18.0 96.9 1017.2 0.2 NNW 2.8 NW 0.0 0.1
00:45 13.9 13.8 18.1 96.9 1017.2 2.4 NW 4.2 NW 0.0 0.1
00:50 13.9 13.8 18.1 96.9 1017.2 1.8 NE 3.5 NE 0.0 0.1
00:55 14.0 13.8 18.1 96.9 1017.1 1.5 ENE 4.2 ENE 0.0 0.1
01:00 14.0 13.9 18.1 96.9 1017.1 0.5 ENE 2.5 ENE 0.0 0.1
01:05 14.0 13.8 18.1 96.8 1017.0 0.9 ENE 3.5 ENE 0.1 0.1
01:10 14.1 13.9 18.1 96.8 1017.0 2.9 SSW 5.0 SW 0.0 0.1
01:15 14.0 13.9 18.1 96.8 1017.0 2.2 WSW 4.2 SW 0.0 0.1
01:20 14.1 13.9 18.1 96.8 1016.9 3.9 SSW 7.1 SSW 0.0 0.1
01:25 14.1 13.9 18.0 96.7 1016.9 5.0 SW 7.4 SSW 0.0 0.1
01:30 14.0 13.8 18.0 96.7 1017.0 3.1 SSW 6.0 SSW 0.0 0.1
01:35 14.0 13.8 18.0 96.7 1017.1 2.5 SW 3.9 SW 0.0 0.1
01:40 13.9 13.8 18.0 96.7 1017.1 1.5 WSW 3.9 SW 0.0 0.1
01:45 13.9 13.8 18.0 96.6 1017.2 3.4 S 5.3 S 0.0 0.1
01:50 13.8 13.7 18.0 96.6 1017.2 3.8 S 5.3 S 0.0 0.2
01:55 13.8 13.7 18.0 96.6 1017.2 2.7 SSW 5.7 S 0.0 0.1
02:00 13.9 13.7 17.9 96.6 1017.2 0.2 SSE 2.1 SE 0.0 0.1
02:05 13.9 13.8 17.9 96.6 1017.3 0.1 SE 2.5 SE 0.0 0.1
02:10 13.9 13.7 18.0 96.6 1017.4 0.1 NE 1.8 ENE 0.0 0.1
02:15 13.9 13.8 17.9 96.5 1017.3 1.5 SSE 4.2 ESE 0.0 0.1
02:20 13.9 13.9 17.9 96.5 1017.3 2.8 ESE 5.3 ESE 0.0 0.1
02:25 13.8 13.8 17.9 96.5 1017.2 3.2 SE 6.4 ESE 0.0 0.1
02:30 13.8 13.8 17.9 96.4 1017.3 3.3 SSE 6.0 ESE 0.0 0.2
02:35 13.8 13.7 17.9 96.4 1017.3 0.2 WSW 2.5 WSW 0.0 0.1
02:40 13.8 13.7 17.9 96.4 1017.3 0.1 WNW 2.8 NW 0.0 0.1
02:45 13.8 13.7 17.9 96.4 1017.3 2.8 WNW 4.2 NW 0.0 0.1
02:50 13.8 13.8 17.9 96.3 1017.2 2.5 WNW 3.5 WNW 0.0 0.1
02:55 13.8 13.8 17.9 96.3 1017.2 4.3 W 6.4 WNW 0.0 0.1
03:00 13.8 13.8 17.9 96.3 1017.3 4.8 WNW 7.8 W 0.0 0.1
03:05 13.8 13.7 17.9 96.3 1017.4 4.4 WNW 7.4 W 0.0 0.1
03:10 13.7 13.6 17.9 96.2 1017.4 0.6 SW 2.8 SSW 0.0 0.1
03:15 13.7 13.6 17.8 96.3 1017.5 1.7 W 5.7 W 0.0 0.1
03:20 13.6 13.5 17.8 96.2 1017.5 5.2 NW 7.4 WNW 0.0 0.1
03:25 13.2 13.1 17.8 96.0 1017.5 4.0 WNW 6.4 WNW 0.0 0.1
03:30 13.0 12.8 17.7 96.1 1017.4 0.9 WSW 3.9 WSW 0.0 0.1
03:35 13.0 12.6 17.7 96.0 1017.4 0.0 NNE 0.0 WSW 0.0 0.1
03:40 13.0 12.5 17.6 96.0 1017.5 0.0 NNE 0.0 WSW 0.0 0.1
03:45 13.0 12.6 17.6 96.0 1017.6 0.0 NNE 0.0 WSW 0.0 0.1
03:50 13.1 12.8 17.5 95.9 1017.8 2.4 W 5.3 W 0.0 0.1
03:55 13.0 12.8 17.6 95.8 1017.8 5.3 W 7.8 W 0.0 0.1
04:00 12.9 12.7 17.5 95.8 1017.8 4.3 WNW 7.1 W 0.0 0.1
04:05 13.0 12.8 17.5 95.8 1017.7 3.2 W 4.6 W 0.0 0.1
04:10 13.0 12.7 17.5 95.7 1017.7 4.2 WSW 6.0 W 0.0 0.1
04:15 12.9 12.5 17.5 95.5 1017.7 3.6 WNW 5.0 W 0.0 0.1
04:20 12.8 12.3 17.4 95.5 1017.7 2.6 WNW 3.9 WNW 0.0 0.1
04:25 12.8 12.2 17.3 95.4 1017.8 1.0 NNW 2.8 NW 0.0 0.1
04:30 12.8 12.2 17.3 95.4 1017.9 1.7 NNW 4.6 NW 0.0 0.1
04:35 12.8 12.3 17.3 95.4 1018.0 0.0 NNE 0.0 N 0.0 0.1
04:40 12.8 12.5 17.3 95.3 1018.0 0.0 NNE 0.0 N 0.0 0.1
04:45 12.9 12.6 17.3 95.3 1018.0 0.4 WNW 2.8 WNW 0.0 0.1
04:50 13.0 12.8 17.3 95.3 1018.0 0.6 WNW 2.5 NW 0.0 0.2
04:55 13.1 12.8 17.3 95.2 1018.0 1.1 WSW 4.2 WSW 0.0 0.6
05:00 13.1 12.9 17.4 95.1 1018.1 4.5 W 6.7 W 0.0 1.1
05:05 13.0 12.8 17.3 95.0 1018.1 5.2 W 7.8 WNW 0.0 1.8
05:10 13.0 12.8 17.3 94.9 1018.1 4.4 WSW 7.1 WSW 0.0 2.7
05:15 13.0 12.8 17.3 94.9 1018.0 3.3 W 5.0 W 0.0 4.1
05:20 13.0 12.8 17.3 94.9 1018.1 3.3 WNW 5.3 W 0.0 5.2
05:25 13.0 12.8 17.3 94.9 1018.2 4.1 NW 5.3 NW 0.0 7.4
05:30 12.9 12.8 17.3 94.8 1018.3 4.0 NW 6.0 WNW 0.0 8.8
05:35 12.9 12.9 17.3 94.9 1018.3 4.0 WNW 5.0 WNW 0.0 12.1
05:40 12.9 12.8 17.3 94.8 1018.3 3.8 W 5.3 WNW 0.0 13.0
05:45 12.9 12.8 17.3 94.8 1018.4 2.6 WNW 4.6 WNW 0.0 15.4
05:50 12.9 12.9 17.3 94.7 1018.4 3.7 WNW 6.0 NW 0.0 17.1
05:55 12.9 12.9 17.3 94.6 1018.5 3.5 W 5.0 WNW 0.0 21.6
06:00 12.9 12.9 17.3 94.5 1018.5 1.9 W 4.6 WNW 0.0 28.0
06:05 13.0 13.0 17.3 94.5 1018.5 3.2 WSW 5.3 WSW 0.0 27.3
06:10 13.0 13.1 17.3 94.4 1018.6 4.1 WSW 5.7 SW 0.0 28.9
06:15 13.1 13.2 17.3 94.4 1018.6 4.1 WSW 5.7 WSW 0.0 36.5
06:20 13.0 13.2 17.3 94.3 1018.6 3.6 WSW 5.3 WSW 0.0 40.9
06:25 13.1 13.2 17.3 94.5 1018.6 3.5 SW 5.7 SSW 0.0 49.7
06:30 13.1 13.3 17.3 94.6 1018.7 3.0 WSW 6.4 W 0.0 44.5
06:35 13.2 13.4 17.4 94.6 1018.8 4.1 WSW 7.8 WSW 0.0 46.9
06:40 13.1 13.5 17.4 94.5 1018.8 5.8 SW 9.9 WSW 0.0 68.2
06:45 13.1 13.4 17.4 94.2 1018.8 6.8 WSW 10.6 SW 0.0 86.4
06:50 13.2 13.6 17.4 94.0 1018.8 3.1 SW 8.1 SW 0.0 116.7
06:55 13.2 13.8 17.5 93.5 1018.9 3.2 S 5.7 S 0.0 153.3
07:00 13.4 14.1 17.6 93.2 1018.9 0.0 NNE 0.0 SSW 0.0 142.6
07:05 13.6 14.2 17.6 92.5 1018.8 1.6 ENE 4.6 ENE 0.0 136.3
07:10 13.7 14.4 17.7 91.8 1018.9 2.2 NE 4.2 NE 0.0 153.1
07:15 13.8 14.5 17.8 91.1 1019.0 0.5 NE 3.2 NNE 0.0 129.9
07:20 13.9 14.4 17.8 90.7 1019.2 0.0 NNE 0.0 SSW 0.0 140.7
07:25 14.0 14.8 17.9 90.3 1019.2 1.1 NNE 3.2 NE 0.0 160.5
07:30 14.0 15.1 17.9 90.0 1019.2 3.1 ENE 5.0 ENE 0.0 175.2
07:35 14.3 15.8 18.1 89.9 1019.2 4.0 ENE 7.1 ENE 0.0 261.0
07:40 14.7 16.4 18.3 89.1 1019.2 3.9 ENE 7.4 NE 0.0 394.8
07:45 14.9 16.3 18.5 87.7 1019.1 5.3 ENE 8.8 ESE 0.0 225.7
07:50 15.0 16.5 18.6 87.2 1019.1 4.4 E 9.9 ENE 0.0 378.4
07:55 15.4 17.2 18.7 86.8 1019.1 4.0 ENE 9.5 ENE 0.0 459.8
08:00 15.8 17.6 19.0 84.7 1019.1 2.5 E 6.0 E 0.0 485.1
08:05 15.9 17.9 19.2 84.3 1019.1 2.3 E 5.7 ENE 0.0 488.6
08:10 16.0 17.9 19.4 83.7 1019.1 2.5 NNE 5.7 NNE 0.0 271.1
08:15 16.0 18.1 19.4 84.1 1019.1 1.7 NE 5.0 ENE 0.0 517.5
08:20 16.6 18.9 19.5 82.7 1019.1 0.8 NW 7.4 WNW 0.0 515.1
08:25 16.8 19.2 19.7 82.0 1019.1 5.6 WNW 7.8 WNW 0.0 525.4
08:30 16.9 19.6 19.9 82.6 1019.0 3.7 NW 7.1 W 0.0 538.8
08:35 17.1 20.1 20.0 80.5 1019.0 2.7 ENE 6.4 E 0.0 553.4
08:40 17.4 20.3 20.2 79.1 1019.0 2.8 SSE 5.3 SSW 0.0 565.4
08:45 17.8 20.7 20.5 79.8 1019.0 1.8 SSW 5.7 NNW 0.0 575.9
08:50 18.3 21.4 20.6 77.6 1019.0 3.1 S 6.7 SW 0.0 588.0
08:55 18.6 22.3 20.8 75.4 1018.9 2.4 SSE 5.7 SSE 0.0 599.8
09:00 18.8 22.9 21.1 74.4 1018.9 2.8 ESE 6.4 SE 0.0 612.0
09:05 19.1 23.4 21.3 73.7 1019.0 3.2 SSE 6.0 S 0.0 622.0
09:10 19.5 23.5 21.5 72.8 1019.0 2.2 ESE 5.3 E 0.0 633.2
09:15 19.7 23.8 21.7 72.8 1019.0 2.8 S 5.0 S 0.0 644.2
09:20 20.1 24.3 21.9 71.6 1019.0 2.8 N 5.3 N 0.0 654.7
09:25 20.1 23.6 22.0 71.4 1018.9 4.9 SSW 8.5 S 0.0 665.3
09:30 20.2 23.5 22.2 71.1 1018.8 2.6 SSE 5.0 SSW 0.0 674.7
09:35 20.3 24.0 22.3 70.0 1018.8 4.4 SSE 6.4 S 0.0 685.4
09:40 20.7 25.0 22.5 68.6 1018.8 3.8 SE 9.9 E 0.0 696.3
09:45 21.2 25.8 22.8 65.9 1018.7 4.2 ESE 8.8 SE 0.0 705.9
09:50 21.5 25.5 23.1 63.6 1018.7 5.2 SW 8.1 SSW 0.0 714.9
09:55 21.7 25.3 23.2 62.1 1018.8 4.6 SSW 7.4 S 0.0 721.4
10:00 22.1 26.3 23.4 63.8 1018.8 3.9 WSW 8.5 SW 0.0 730.9
10:05 22.7 27.1 23.6 62.3 1018.8 3.9 W 8.5 WSW 0.0 739.2
10:10 22.9 27.4 23.9 62.3 1018.8 4.8 W 7.4 SW 0.0 746.0
10:15 23.3 27.6 24.1 60.6 1018.8 3.1 WSW 5.7 NNW 0.0 753.1
10:20 23.2 28.7 24.4 59.5 1018.8 3.0 ESE 6.4 E 0.0 759.9
10:25 23.3 28.8 24.7 61.2 1018.7 3.7 SSW 8.1 S 0.0 766.8
10:30 23.8 28.8 24.9 58.1 1018.6 4.0 NNW 8.1 NNW 0.0 772.0
10:35 23.7 29.6 25.1 58.1 1018.6 3.5 NNE 7.8 NNE 0.0 777.9
10:40 23.8 29.8 25.3 56.8 1018.5 1.9 NNE 5.7 ENE 0.0 784.4
10:45 24.3 29.8 25.6 56.8 1018.5 3.0 W 7.8 WNW 0.0 789.4
10:50 24.5 30.2 25.8 55.0 1018.5 3.7 NW 7.8 NNW 0.0 796.3
10:55 24.7 30.4 26.0 54.7 1018.4 4.7 NW 8.1 W 0.0 798.5
11:00 25.0 30.1 26.1 53.4 1018.4 5.1 WSW 9.2 W 0.0 807.0
11:05 25.5 30.5 26.3 50.0 1018.4 4.5 WSW 8.1 W 0.0 812.0
11:10 25.7 30.5 26.5 48.5 1018.4 3.6 WSW 9.9 W 0.0 816.0
11:15 25.8 30.7 26.7 47.6 1018.4 4.1 SSW 7.8 W 0.0 820.0
11:20 25.7 31.0 26.9 43.0 1018.3 3.0 S 6.7 S 0.0 823.0
11:25 26.2 31.1 27.1 42.5 1018.3 5.7 SW 9.5 SW 0.0 825.0
11:30 26.2 31.9 27.3 39.9 1018.3 4.1 SE 7.8 S 0.0 824.0
11:35 26.2 31.8 27.5 42.7 1018.3 6.1 S 9.2 S 0.0 823.0
11:40 26.2 31.5 27.7 41.5 1018.3 4.6 S 8.1 SW 0.0 827.0
11:45 26.6 32.0 27.8 41.0 1018.2 5.7 S 10.3 SSW 0.0 830.0
11:50 26.8 31.7 27.9 40.0 1018.1 4.9 SSW 9.5 SSW 0.0 831.0
11:55 27.0 32.7 28.1 37.7 1018.1 4.4 SE 8.5 SSE 0.0 832.0
12:00 27.1 33.8 28.3 38.6 1018.0 3.3 W 7.1 E 0.0 821.0
12:05 27.1 34.4 28.6 35.2 1017.9 6.6 ENE 11.0 ENE 0.0 832.0
12:10 27.2 34.2 28.9 35.1 1017.8 4.9 SSE 9.5 S 0.0 833.0
12:15 27.5 33.3 29.2 34.6 1017.8 6.0 S 8.8 S 0.0 832.0
12:20 27.7 33.0 29.2 32.8 1017.7 3.9 SSW 6.4 S 0.0 830.0
12:25 27.8 34.4 29.3 31.8 1017.7 5.0 ENE 8.8 NNE 0.0 829.0
12:30 27.7 34.5 29.5 31.6 1017.6 5.9 NNW 11.7 N 0.0 827.0
12:35 28.4 33.6 29.7 29.2 1017.6 8.4 SW 13.8 WSW 0.0 819.0
12:40 28.2 33.3 29.8 29.8 1017.6 5.1 SSW 8.8 SW 0.0 819.0
12:45 28.3 33.7 29.8 30.8 1017.6 6.8 W 10.6 W 0.0 814.0
12:50 28.2 34.8 30.0 30.4 1017.6 2.0 NNW 5.7 NW 0.0 812.0
12:55 28.3 34.8 30.2 30.7 1017.6 3.4 W 6.4 W 0.0 808.0
13:00 28.7 35.2 30.5 29.4 1017.5 3.8 SSE 7.8 SE 0.0 803.0
13:05 28.5 35.3 30.6 29.6 1017.5 2.8 SE 8.1 S 0.0 796.4
13:10 28.6 35.7 30.8 29.8 1017.4 4.1 SE 9.9 S 0.0 788.3
13:15 28.5 34.7 30.9 31.4 1017.3 6.4 SSE 12.7 SSW 0.0 781.5
13:20 28.8 35.3 30.8 31.6 1017.3 6.6 SSE 12.4 SE 0.0 777.5
13:25 28.9 35.8 30.9 31.2 1017.2 5.6 SSE 13.8 SW 0.0 768.8
13:30 29.0 34.2 31.0 29.3 1017.2 8.4 SSW 17.0 S 0.0 687.6
13:35 29.1 33.9 31.1 28.2 1017.2 8.1 SSW 13.4 S 0.0 752.7
13:40 29.5 34.8 31.2 26.7 1017.2 3.0 W 11.7 S 0.0 749.2
13:45 29.8 35.3 31.4 24.8 1017.1 8.1 WSW 15.2 WSW 0.0 742.5
13:50 29.8 34.9 31.6 24.8 1017.1 5.9 WSW 11.0 SW 0.0 729.8
13:55 30.1 35.4 31.8 25.4 1017.1 2.2 SW 8.5 SSW 0.0 720.5
14:00 30.1 35.4 32.0 27.1 1017.1 5.1 W 13.1 SW 0.0 712.4
14:05 30.1 35.4 32.1 28.7 1017.0 4.4 W 16.2 WSW 0.0 701.9
14:10 29.7 35.1 32.2 28.8 1017.0 7.2 SSE 13.1 SE 0.0 692.3
14:15 29.8 34.8 32.1 29.9 1017.0 8.4 WSW 16.2 SW 0.0 683.2
14:20 29.7 34.8 32.2 29.2 1017.0 4.3 S 9.2 S 0.0 542.4
14:25 30.0 35.0 32.3 30.2 1017.0 6.8 WSW 12.7 SW 0.0 663.2
14:30 29.8 34.2 32.4 30.5 1017.0 7.2 S 12.0 SSW 0.0 654.6
14:35 29.6 35.7 32.3 31.2 1016.9 4.1 ENE 9.5 NNW 0.0 645.2
14:40 30.1 35.4 32.5 31.0 1017.0 6.3 WSW 10.3 W 0.0 631.6
14:45 30.2 34.7 32.8 30.3 1016.9 5.9 SW 14.8 SW 0.0 623.9
14:50 30.2 34.9 32.8 30.2 1016.9 3.2 NNW 11.7 W 0.0 614.4
14:55 30.2 34.2 32.9 32.0 1016.9 8.9 SSW 15.9 SW 0.0 602.3
15:00 30.2 33.7 32.8 32.0 1016.8 9.0 S 17.3 SSW 0.0 593.7
15:05 30.3 34.3 32.7 33.5 1016.8 9.7 WSW 16.6 WNW 0.0 592.4
15:10 30.3 34.1 32.8 34.5 1016.8 5.8 WSW 12.0 WSW 0.0 562.1
15:15 30.2 33.5 32.8 34.8 1016.8 6.4 W 10.3 WNW 0.0 379.3
15:20 30.1 33.1 32.8 34.9 1016.8 5.9 WSW 13.8 WNW 0.0 371.2
15:25 29.9 32.6 32.6 34.7 1016.8 6.6 SSW 11.0 S 0.0 472.3
15:30 29.5 31.4 32.4 35.1 1016.7 4.7 SSE 11.3 SSW 0.0 267.6
15:35 29.4 32.4 32.1 36.5 1016.7 2.4 E 8.1 SW 0.0 288.4
15:40 29.5 31.7 32.1 37.5 1016.7 7.0 WSW 12.0 SW 0.0 342.6
15:45 29.6 31.2 32.0 37.6 1016.7 7.2 SW 12.7 SSW 0.0 260.7
15:50 29.2 30.9 31.8 37.4 1016.7 5.1 SSW 11.0 S 0.0 358.5
15:55 29.3 30.8 31.6 41.0 1016.7 7.0 SSE 12.4 SE 0.0 291.8
16:00 29.5 31.4 31.4 42.8 1016.6 8.3 SSE 15.2 SSE 0.0 388.4
16:05 28.8 30.7 31.3 44.2 1016.7 11.2 SE 23.3 SSE 0.0 276.5
16:10 28.2 29.6 30.9 45.5 1016.7 10.7 SE 21.5 SSE 0.0 173.5
16:15 28.1 30.2 30.5 45.9 1016.7 10.4 SE 18.4 SE 0.0 415.7
16:20 28.2 30.5 30.5 45.9 1016.7 10.5 SE 20.8 SSE 0.0 324.7
16:25 28.0 29.5 30.5 45.9 1016.7 9.8 SE 18.4 SSE 0.0 210.0
16:30 28.2 30.6 30.3 46.0 1016.7 7.5 SE 18.7 SSE 0.0 401.3
16:35 28.2 30.8 30.4 46.0 1016.8 9.9 SE 19.1 SE 0.0 384.5
16:40 28.4 31.0 30.5 45.9 1016.8 5.9 SE 11.0 SE 0.0 359.6
16:45 28.6 31.2 30.4 45.3 1016.9 8.1 SE 17.0 SE 0.0 332.1
16:50 28.4 30.7 30.4 45.8 1016.9 6.9 SSE 13.8 SE 0.0 295.2
16:55 28.3 30.1 30.4 45.6 1016.8 8.4 SE 15.5 ESE 0.0 270.1
17:00 28.2 29.7 30.4 45.8 1016.8 7.7 SSE 15.5 ESE 0.0 250.1
17:05 28.2 29.6 30.4 45.6 1016.8 7.2 S 12.4 SE 0.0 232.2
17:10 28.1 29.6 30.2 45.7 1016.8 10.2 SE 20.5 SE 0.0 218.1
17:15 27.6 29.2 29.9 47.1 1016.8 14.5 ESE 25.8 ESE 0.0 204.0
17:20 27.2 28.7 29.5 48.7 1016.9 14.5 ESE 28.6 ESE 0.0 187.2
17:25 27.1 28.4 29.3 49.1 1016.9 12.6 ESE 23.0 ESE 0.0 177.9
17:30 27.1 28.3 29.3 49.6 1016.9 10.4 ESE 20.1 SE 0.0 165.3
17:35 27.0 28.1 29.2 50.1 1017.0 9.5 SE 18.4 ESE 0.0 155.5
17:40 26.8 27.6 29.1 51.1 1017.0 9.7 SE 18.0 ESE 0.0 145.0
17:45 26.7 26.8 28.8 51.4 1017.1 9.8 SE 21.9 SE 0.0 129.1
17:50 26.4 26.0 28.6 52.2 1017.1 10.9 SE 21.5 SSE 0.0 116.7
17:55 26.1 25.5 28.2 53.2 1017.2 11.1 SE 20.1 SE 0.0 96.9
18:00 25.9 25.1 27.9 53.7 1017.3 11.5 SE 19.1 E 0.0 78.6
18:05 25.7 24.7 27.6 54.2 1017.3 11.8 SE 20.5 ESE 0.0 50.1
18:10 25.4 24.3 27.4 55.0 1017.3 11.2 SE 18.7 ESE 0.0 23.9
18:15 25.2 24.0 27.3 55.4 1017.4 9.9 SE 17.3 SE 0.0 18.7
18:20 25.1 23.7 27.2 55.6 1017.5 8.0 SE 13.4 SE 0.0 15.7
18:25 25.0 23.5 27.2 56.1 1017.5 4.9 SSE 13.1 SE 0.0 13.2
18:30 24.9 23.3 27.2 56.7 1017.6 4.4 SSE 12.0 SE 0.0 11.6
18:35 24.8 23.0 27.1 57.0 1017.7 4.1 SE 10.6 SE 0.0 9.0
18:40 24.6 22.9 26.9 57.4 1017.8 5.8 SSE 11.0 SSE 0.0 7.1
18:45 24.5 22.7 26.8 57.7 1017.9 4.5 SSE 10.6 SSE 0.0 5.1
18:50 24.3 22.6 26.7 58.0 1017.9 5.7 SSE 10.3 SSE 0.0 3.4
18:55 24.2 22.3 26.6 58.9 1018.1 4.4 S 7.4 S 0.0 2.0
19:00 24.1 22.2 26.5 60.5 1018.1 6.5 S 10.3 S 0.0 1.1
19:05 24.1 22.1 26.4 61.4 1018.2 6.4 SSW 11.7 SSW 0.0 0.5
19:10 23.8 21.8 26.3 63.0 1018.3 5.1 SW 7.8 SW 0.0 0.2
19:15 23.7 21.6 26.1 64.2 1018.4 5.3 SSW 8.5 S 0.0 0.1
19:20 23.4 21.2 26.0 65.2 1018.4 4.2 SW 8.1 W 0.0 0.1
19:25 23.2 20.9 25.9 65.2 1018.5 4.1 WSW 8.5 WSW 0.0 0.1
19:30 23.0 20.7 25.7 63.7 1018.6 3.6 SW 6.4 WSW 0.0 0.1
19:35 22.8 20.4 25.6 62.6 1018.6 3.3 SW 6.0 SSW 0.0 0.1
19:40 22.6 20.2 25.5 61.9 1018.7 4.6 SSW 8.8 SSW 0.0 0.1
19:45 22.4 19.9 25.3 62.9 1018.8 3.3 W 5.3 W 0.0 0.1
19:50 22.1 19.5 25.2 63.6 1018.8 3.6 W 6.4 SW 0.0 0.1
19:55 22.0 19.4 25.1 63.2 1018.8 2.5 WSW 6.4 SSW 0.0 0.1
20:00 21.8 19.1 25.0 64.5 1018.9 1.0 W 2.1 W 0.0 0.2
20:05 21.7 18.9 24.8 64.7 1018.9 2.1 WSW 5.0 W 0.0 0.1
20:10 21.6 18.9 24.7 64.9 1019.0 3.6 SW 5.0 SW 0.0 0.1
20:15 21.5 18.8 24.6 64.8 1019.1 3.0 SSW 5.0 S 0.0 0.1
20:20 21.5 19.0 24.5 65.2 1019.1 3.5 SW 6.4 SSW 0.0 0.1
20:25 21.3 18.8 24.5 65.7 1019.2 4.4 SW 7.4 SSW 0.0 0.1
20:30 21.3 18.7 24.4 65.8 1019.3 4.4 WSW 11.0 SW 0.0 0.1
20:35 21.3 19.0 24.3 65.5 1019.4 6.5 SW 9.2 SW 0.0 0.1
20:40 21.3 19.1 24.2 65.5 1019.4 3.9 SW 7.1 SW 0.0 0.1
20:45 21.2 18.9 24.2 65.8 1019.4 2.2 SSW 6.0 S 0.0 0.1
20:50 21.2 18.6 24.1 66.4 1019.4 3.1 S 4.2 S 0.0 0.1
20:55 21.2 18.6 23.9 67.0 1019.5 3.4 SSW 5.7 S 0.0 0.1
21:00 21.1 18.5 23.9 67.5 1019.5 2.9 S 4.6 SSW 0.0 0.1
Màxima 30.4 35.8 32.9 96.9 1019.5 14.5 ESE 28.6 ESE 0.1 833.0
Mínima 12.7 12.2 17.3 24.8 1016.6
Total 0.1